createdAt,value
2018-02-10T00:02:19.631Z,19.80
2018-02-10T00:04:47.086Z,20.53
2018-02-10T00:07:14.944Z,19.43
2018-02-10T00:09:42.473Z,21.20
2018-02-10T00:12:09.922Z,21.00
2018-02-10T00:14:37.619Z,21.90
2018-02-10T00:17:05.062Z,21.87
2018-02-10T00:19:32.513Z,21.37
2018-02-10T00:22:00.398Z,21.83
2018-02-10T00:24:27.856Z,21.87
2018-02-10T00:26:55.297Z,19.77
2018-02-10T00:29:22.777Z,24.27
2018-02-10T00:31:50.273Z,22.20
2018-02-10T00:34:17.696Z,18.90
2018-02-10T00:36:45.327Z,19.80
2018-02-10T00:39:12.776Z,20.27
2018-02-10T00:41:40.221Z,20.43
2018-02-10T00:44:08.050Z,21.57
2018-02-10T00:46:35.635Z,19.67
2018-02-10T00:49:03.094Z,21.40
2018-02-10T00:51:30.697Z,18.50
2018-02-10T00:53:58.145Z,21.30
2018-02-10T00:56:25.626Z,19.93
2018-02-10T00:58:53.251Z,20.43
2018-02-10T01:01:20.709Z,21.50
2018-02-10T01:03:48.173Z,20.00
2018-02-10T01:06:15.840Z,20.60
2018-02-10T01:08:43.300Z,21.03
2018-02-10T01:11:10.748Z,21.63
2018-02-10T01:13:38.399Z,22.17
2018-02-10T01:16:05.861Z,22.10
2018-02-10T01:18:33.310Z,21.20
2018-02-10T01:21:00.993Z,19.73
2018-02-10T01:23:28.444Z,19.60
2018-02-10T01:25:55.893Z,22.27
2018-02-10T01:28:23.373Z,20.73
2018-02-10T01:30:50.828Z,23.23
2018-02-10T01:33:18.275Z,22.43
2018-02-10T01:35:45.933Z,21.90
2018-02-10T01:38:13.372Z,21.37
2018-02-10T01:40:40.821Z,23.00
2018-02-10T01:43:08.613Z,20.63
2018-02-10T01:45:36.070Z,22.37
2018-02-10T01:48:03.536Z,21.80
2018-02-10T01:50:31.017Z,21.27
2018-02-10T01:52:58.476Z,21.50
2018-02-10T01:55:25.929Z,21.80
2018-02-10T01:57:53.404Z,20.93
2018-02-10T02:00:21.092Z,22.63
2018-02-10T02:02:48.564Z,21.30
2018-02-10T02:05:16.236Z,21.50
2018-02-10T02:07:43.689Z,18.67
2018-02-10T02:10:11.132Z,19.77
2018-02-10T02:12:38.812Z,20.50
2018-02-10T02:15:06.258Z,22.30
2018-02-10T02:17:33.747Z,21.00
2018-02-10T02:20:01.213Z,20.17
2018-02-10T02:22:28.661Z,20.57
2018-02-10T02:24:56.101Z,21.00
2018-02-10T02:27:23.576Z,21.10
2018-02-10T02:29:51.065Z,20.27
2018-02-10T02:32:18.558Z,20.67
2018-02-10T02:34:46.019Z,20.50
2018-02-10T02:37:13.502Z,21.00
2018-02-10T02:39:40.985Z,22.10
2018-02-10T02:42:08.450Z,20.20
2018-02-10T02:44:35.896Z,21.57
2018-02-10T02:47:03.605Z,24.10
2018-02-10T02:49:31.049Z,21.23
2018-02-10T02:51:58.514Z,22.47
2018-02-10T02:54:25.988Z,20.90
2018-02-10T02:56:53.447Z,21.33
2018-02-10T02:59:21.104Z,22.47
2018-02-10T03:01:48.573Z,21.73
2018-02-10T03:04:16.017Z,18.40
2018-02-10T03:06:43.498Z,20.87
2018-02-10T03:09:10.944Z,20.40
2018-02-10T03:11:38.433Z,19.73
2018-02-10T03:14:05.886Z,20.50
2018-02-10T03:16:33.333Z,22.60
2018-02-10T03:19:00.799Z,22.47
2018-02-10T03:21:28.245Z,22.63
2018-02-10T03:23:56.087Z,22.77
2018-02-10T03:26:23.547Z,21.57
2018-02-10T03:28:50.992Z,23.07
2018-02-10T03:31:18.479Z,25.57
2018-02-10T03:33:45.925Z,22.57
2018-02-10T03:36:13.553Z,21.40
2018-02-10T03:38:41.004Z,23.37
2018-02-10T03:41:08.879Z,22.00
2018-02-10T03:43:36.341Z,20.30
2018-02-10T03:46:03.788Z,21.17
2018-02-10T03:48:31.454Z,22.27
2018-02-10T03:50:58.912Z,22.47
2018-02-10T03:53:26.357Z,23.07
2018-02-10T03:55:53.824Z,22.70
2018-02-10T03:58:21.286Z,22.13
2018-02-10T04:00:48.769Z,26.30
2018-02-10T04:03:16.220Z,22.33
2018-02-10T04:05:43.749Z,21.63
2018-02-10T04:08:11.217Z,25.37
2018-02-10T04:10:38.661Z,24.57
2018-02-10T04:13:06.138Z,24.23
2018-02-10T04:15:33.591Z,23.67
2018-02-10T04:18:01.045Z,23.27
2018-02-10T04:20:28.513Z,24.23
2018-02-10T04:22:55.981Z,21.53
2018-02-10T04:25:23.711Z,20.97
2018-02-10T04:27:51.156Z,22.43
2018-02-10T04:30:18.620Z,18.80
2018-02-10T04:32:46.089Z,21.07
2018-02-10T04:35:13.560Z,21.60
2018-02-10T04:37:41.224Z,24.17
2018-02-10T04:40:08.688Z,22.10
2018-02-10T04:42:36.132Z,21.13
2018-02-10T04:45:03.637Z,22.43
2018-02-10T04:47:31.081Z,23.27
2018-02-10T04:49:59.024Z,23.10
2018-02-10T04:52:26.464Z,22.40
2018-02-10T04:54:53.953Z,22.63
2018-02-10T04:57:21.421Z,22.80
2018-02-10T04:59:48.881Z,21.23
2018-02-10T05:02:16.396Z,22.80
2018-02-10T05:04:43.848Z,22.30
2018-02-10T05:07:11.304Z,23.23
2018-02-10T05:09:38.805Z,24.73
2018-02-10T05:12:06.255Z,24.07
2018-02-10T05:14:33.763Z,26.47
2018-02-10T05:17:01.209Z,22.47
2018-02-10T05:19:28.660Z,23.90
2018-02-10T05:21:56.135Z,23.03
2018-02-10T05:24:23.591Z,24.43
2018-02-10T05:26:51.179Z,21.37
2018-02-10T05:29:18.620Z,22.00
2018-02-10T05:31:46.117Z,23.13
2018-02-10T05:34:13.600Z,21.50
2018-02-10T05:36:41.045Z,20.07
2018-02-10T05:39:08.633Z,21.87
2018-02-10T05:41:36.088Z,22.60
2018-02-10T05:44:03.560Z,23.47
2018-02-10T05:46:31.031Z,24.83
2018-02-10T05:48:58.473Z,23.43
2018-02-10T05:51:25.948Z,23.10
2018-02-10T05:53:53.392Z,23.00
2018-02-10T05:56:20.862Z,25.47
2018-02-10T05:58:48.328Z,22.70
2018-02-10T06:01:15.784Z,23.10
2018-02-10T06:03:43.512Z,23.20
2018-02-10T06:06:10.967Z,21.37
2018-02-10T06:08:38.429Z,21.77
2018-02-10T06:11:05.913Z,21.97
2018-02-10T06:13:33.513Z,20.47
2018-02-10T06:16:01.205Z,21.67
2018-02-10T06:18:28.673Z,21.07
2018-02-10T06:20:56.129Z,22.43
2018-02-10T06:23:23.605Z,20.20
2018-02-10T06:25:51.058Z,21.40
2018-02-10T06:28:18.549Z,19.57
2018-02-10T06:30:46.001Z,20.57
2018-02-10T06:33:13.447Z,21.40
2018-02-10T06:35:40.937Z,19.93
2018-02-10T06:38:08.380Z,24.00
2018-02-10T06:40:35.884Z,23.67
2018-02-10T06:43:03.357Z,23.43
2018-02-10T06:45:30.809Z,20.40
2018-02-10T06:47:58.306Z,20.70
2018-02-10T06:50:25.757Z,22.00
2018-02-10T06:52:53.356Z,20.27
2018-02-10T06:55:20.797Z,21.90
2018-02-10T06:57:48.268Z,20.53
2018-02-10T07:00:15.757Z,24.13
2018-02-10T07:02:43.210Z,23.23
2018-02-10T07:05:10.841Z,22.37
2018-02-10T07:07:38.295Z,21.27
2018-02-10T07:10:05.755Z,20.43
2018-02-10T07:12:33.221Z,22.27
2018-02-10T07:15:00.669Z,23.17
2018-02-10T07:17:28.155Z,23.60
2018-02-10T07:19:55.607Z,20.47
2018-02-10T07:22:23.049Z,20.90
2018-02-10T07:24:50.588Z,19.80
2018-02-10T07:27:18.029Z,21.00
2018-02-10T07:29:45.713Z,20.40
2018-02-10T07:32:13.172Z,21.67
2018-02-10T07:34:40.656Z,21.57
2018-02-10T07:37:08.124Z,21.70
2018-02-10T07:39:35.594Z,21.40
2018-02-10T07:42:03.099Z,21.60
2018-02-10T07:44:30.589Z,21.13
2018-02-10T07:46:58.041Z,22.00
2018-02-10T07:49:25.524Z,21.53
2018-02-10T07:51:53.033Z,20.40
2018-02-10T07:54:20.512Z,18.50
2018-02-10T07:56:48.131Z,17.33
2018-02-10T07:59:15.594Z,15.53
2018-02-10T08:01:43.070Z,16.03
2018-02-10T08:04:10.520Z,14.90
2018-02-10T08:06:38.176Z,16.73
2018-02-10T08:09:05.758Z,17.47
2018-02-10T08:11:33.309Z,18.07
2018-02-10T08:14:00.776Z,15.17
2018-02-10T08:16:28.225Z,15.00
2018-02-10T08:18:55.868Z,15.97
2018-02-10T08:21:23.330Z,16.33
2018-02-10T08:23:50.794Z,17.23
2018-02-10T08:26:18.275Z,17.40
2018-02-10T08:28:45.740Z,17.13
2018-02-10T08:31:13.453Z,16.43
2018-02-10T08:33:40.916Z,14.77
2018-02-10T08:36:08.389Z,16.40
2018-02-10T08:38:35.856Z,16.17
2018-02-10T08:41:03.429Z,15.43
2018-02-10T08:43:31.141Z,17.03
2018-02-10T08:45:58.610Z,16.40
2018-02-10T08:48:26.075Z,16.60
2018-02-10T08:50:53.544Z,14.30
2018-02-10T08:53:20.988Z,15.77
2018-02-10T08:55:48.769Z,16.07
2018-02-10T08:58:16.216Z,15.60
2018-02-10T09:00:43.672Z,15.10
2018-02-10T09:03:11.141Z,14.47
2018-02-10T09:05:38.596Z,14.90
2018-02-10T09:08:06.229Z,13.33
2018-02-10T09:10:33.682Z,14.80
2018-02-10T09:13:01.138Z,15.37
2018-02-10T09:15:28.604Z,16.80
2018-02-10T09:17:56.052Z,15.20
2018-02-10T09:20:23.573Z,13.50
2018-02-10T09:22:51.002Z,14.50
2018-02-10T09:25:18.448Z,14.87
2018-02-10T09:27:45.916Z,12.50
2018-02-10T09:30:13.361Z,13.70
2018-02-10T09:32:40.977Z,13.90
2018-02-10T09:35:08.426Z,12.93
2018-02-10T09:37:35.874Z,11.53
2018-02-10T09:40:03.346Z,13.07
2018-02-10T09:42:30.805Z,14.87
2018-02-10T09:44:58.278Z,14.07
2018-02-10T09:47:25.753Z,11.77
2018-02-10T09:49:53.215Z,13.90
2018-02-10T09:52:20.698Z,13.17
2018-02-10T09:54:48.150Z,13.10
2018-02-10T09:57:15.877Z,13.57
2018-02-10T09:59:43.334Z,12.17
2018-02-10T10:02:10.781Z,12.87
2018-02-10T10:04:38.245Z,13.47
2018-02-10T10:07:06.088Z,11.70
2018-02-10T10:09:33.632Z,13.00
2018-02-10T10:12:01.077Z,12.80
2018-02-10T10:14:28.537Z,11.87
2018-02-10T10:16:56.013Z,11.37
2018-02-10T10:19:23.487Z,12.47
2018-02-10T10:21:51.037Z,10.83
2018-02-10T10:24:18.495Z,10.70
2018-02-10T10:26:45.960Z,13.00
2018-02-10T10:29:13.448Z,11.03
2018-02-10T10:31:40.895Z,12.70
2018-02-10T10:34:08.398Z,11.77
2018-02-10T10:36:35.953Z,13.40
2018-02-10T10:39:03.419Z,13.20
2018-02-10T10:41:30.893Z,12.73
2018-02-10T10:43:58.337Z,13.83
2018-02-10T10:46:26.005Z,14.07
2018-02-10T10:48:53.458Z,8.87
2018-02-10T10:51:20.933Z,10.93
2018-02-10T10:53:48.400Z,9.60
2018-02-10T10:56:15.848Z,9.57
2018-02-10T10:58:43.712Z,8.53
2018-02-10T11:01:11.184Z,8.30
2018-02-10T11:03:38.645Z,8.70
2018-02-10T11:06:06.163Z,9.93
2018-02-10T11:08:33.608Z,10.23
2018-02-10T11:11:01.328Z,8.83
2018-02-10T11:13:28.781Z,8.00
2018-02-10T11:15:56.225Z,8.67
2018-02-10T11:18:23.700Z,7.87
2018-02-10T11:20:51.151Z,9.13
2018-02-10T11:23:18.867Z,9.53
2018-02-10T11:25:46.386Z,9.07
2018-02-10T11:28:13.832Z,8.50
2018-02-10T11:30:41.293Z,8.77
2018-02-10T11:33:08.737Z,7.73
2018-02-10T11:35:36.378Z,8.20
2018-02-10T11:38:03.819Z,6.30
2018-02-10T11:40:31.288Z,6.77
2018-02-10T11:42:59.005Z,7.33
2018-02-10T11:45:26.453Z,7.07
2018-02-10T11:47:54.081Z,8.20
2018-02-10T11:50:21.526Z,6.83
2018-02-10T11:52:48.985Z,6.40
2018-02-10T11:55:16.445Z,6.43
2018-02-10T11:57:43.880Z,7.03
2018-02-10T12:00:11.364Z,5.80
2018-02-10T12:02:38.834Z,6.47
2018-02-10T12:05:06.312Z,6.13
2018-02-10T12:07:33.769Z,6.63
2018-02-10T12:10:01.213Z,5.50
2018-02-10T12:12:28.696Z,5.17
2018-02-10T12:14:56.156Z,5.33
2018-02-10T12:17:23.605Z,6.33
2018-02-10T12:19:51.070Z,6.77
2018-02-10T12:22:18.513Z,6.33
2018-02-10T12:24:45.997Z,5.10
2018-02-10T12:27:13.432Z,5.97
2018-02-10T12:29:40.884Z,5.30
2018-02-10T12:32:08.377Z,6.20
2018-02-10T12:34:35.829Z,6.13
2018-02-10T12:37:03.408Z,7.50
2018-02-10T12:39:30.876Z,6.10
2018-02-10T12:41:58.348Z,6.00
2018-02-10T12:44:25.812Z,4.60
2018-02-10T12:46:53.358Z,6.80
2018-02-10T12:49:26.281Z,4.93
2018-02-10T12:51:53.769Z,5.37
2018-02-10T12:54:21.210Z,5.63
2018-02-10T12:56:48.649Z,7.20
2018-02-10T12:59:16.092Z,6.00
2018-02-10T13:01:43.553Z,6.53
2018-02-10T13:04:10.998Z,5.40
2018-02-10T13:06:38.489Z,5.60
2018-02-10T13:09:05.962Z,7.40
2018-02-10T13:11:33.399Z,7.17
2018-02-10T13:14:00.865Z,7.67
2018-02-10T13:16:28.301Z,6.37
2018-02-10T13:18:55.766Z,8.20
2018-02-10T13:21:23.233Z,10.53
2018-02-10T13:23:50.670Z,7.30
2018-02-10T13:26:18.140Z,7.47
2018-02-10T13:28:45.576Z,6.67
2018-02-10T13:31:13.182Z,5.93
2018-02-10T13:33:40.624Z,5.20
2018-02-10T13:36:08.068Z,8.63
2018-02-10T13:38:35.541Z,5.90
2018-02-10T13:41:02.985Z,5.13
2018-02-10T13:43:30.776Z,5.57
2018-02-10T13:45:58.217Z,6.37
2018-02-10T13:48:40.624Z,7.80
2018-02-10T13:51:08.065Z,6.40
2018-02-10T13:53:35.520Z,7.67
2018-02-10T13:56:02.979Z,6.43
2018-02-10T13:58:31.295Z,7.60
2018-02-10T14:00:59.350Z,6.83
2018-02-10T14:03:27.066Z,8.67
2018-02-10T14:05:54.515Z,8.47
2018-02-10T14:08:21.976Z,9.07
2018-02-10T14:10:49.424Z,8.70
2018-02-10T14:13:17.148Z,9.83
2018-02-10T14:15:44.605Z,8.50
2018-02-10T14:18:12.056Z,7.83
2018-02-10T14:20:39.524Z,8.37
2018-02-10T14:23:07.001Z,10.83
2018-02-10T14:25:34.489Z,9.00
2018-02-10T14:28:01.937Z,10.13
2018-02-10T14:30:29.386Z,10.00
2018-02-10T14:32:56.869Z,10.27
2018-02-10T14:35:24.311Z,9.80
2018-02-10T14:37:51.808Z,10.30
2018-02-10T14:40:19.264Z,10.33
2018-02-10T14:42:46.712Z,10.43
2018-02-10T14:45:14.223Z,10.67
2018-02-10T14:47:41.673Z,11.20
2018-02-10T14:50:09.300Z,11.27
2018-02-10T14:52:36.753Z,11.00
2018-02-10T14:55:04.197Z,11.17
2018-02-10T14:57:31.677Z,9.93
2018-02-10T14:59:59.142Z,9.50
2018-02-10T15:02:26.794Z,12.30
2018-02-10T15:04:54.248Z,10.97
2018-02-10T15:07:21.713Z,11.37
2018-02-10T15:09:49.185Z,11.30
2018-02-10T15:12:16.637Z,11.20
2018-02-10T15:14:44.281Z,10.77
2018-02-10T15:17:11.731Z,10.80
2018-02-10T15:19:39.177Z,11.37
2018-02-10T15:22:06.676Z,11.20
2018-02-10T15:24:34.128Z,11.70
2018-02-10T15:27:01.700Z,13.30
2018-02-10T15:29:40.890Z,10.67
2018-02-10T15:32:20.341Z,11.77
2018-02-10T15:34:58.809Z,11.13
2018-02-10T15:37:26.672Z,11.60
2018-02-10T15:39:54.179Z,12.37
2018-02-10T15:42:21.638Z,12.73
2018-02-10T15:44:49.127Z,10.87
2018-02-10T15:47:16.603Z,11.77
2018-02-10T15:49:44.074Z,13.90
2018-02-10T15:52:11.520Z,11.83
2018-02-10T15:54:38.965Z,12.10
2018-02-10T15:57:06.429Z,11.53
2018-02-10T15:59:33.880Z,11.50
2018-02-10T16:02:01.405Z,10.83
2018-02-10T16:04:28.868Z,11.60
2018-02-10T16:06:56.329Z,12.10
2018-02-10T16:09:23.830Z,11.30
2018-02-10T16:11:51.278Z,13.13
2018-02-10T16:14:18.861Z,12.07
2018-02-10T16:16:46.332Z,12.20
2018-02-10T16:19:13.781Z,12.90
2018-02-10T16:21:41.245Z,13.30
2018-02-10T16:24:08.703Z,12.50
2018-02-10T16:26:36.992Z,13.50
2018-02-10T16:29:04.442Z,12.80
2018-02-10T16:31:31.895Z,13.17
2018-02-10T16:33:59.389Z,13.13
2018-02-10T16:36:26.832Z,12.37
2018-02-10T16:38:54.356Z,11.83
2018-02-10T16:41:21.817Z,14.23
2018-02-10T16:43:49.264Z,12.73
2018-02-10T16:46:16.772Z,14.33
2018-02-10T16:48:44.239Z,12.83
2018-02-10T16:51:11.839Z,11.53
2018-02-10T16:53:39.290Z,12.20
2018-02-10T16:56:06.813Z,13.57
2018-02-10T16:58:34.303Z,14.03
2018-02-10T17:01:01.781Z,14.23
2018-02-10T17:03:29.444Z,14.80
2018-02-10T17:05:56.889Z,13.70
2018-02-10T17:08:24.340Z,14.33
2018-02-10T17:10:51.813Z,15.90
2018-02-10T17:13:19.261Z,15.17
2018-02-10T17:15:46.933Z,18.47
2018-02-10T17:18:14.383Z,16.07
2018-02-10T17:20:41.833Z,18.13
2018-02-10T17:23:09.299Z,20.60
2018-02-10T17:25:36.753Z,17.10
2018-02-10T17:28:04.404Z,16.77
2018-02-10T17:30:31.849Z,14.27
2018-02-10T17:32:59.297Z,15.27
2018-02-10T17:35:26.760Z,18.03
2018-02-10T17:37:54.205Z,16.93
2018-02-10T17:40:21.900Z,15.50
2018-02-10T17:42:49.389Z,17.50
2018-02-10T17:45:16.851Z,15.73
2018-02-10T17:47:44.321Z,15.10
2018-02-10T17:50:11.776Z,15.23
2018-02-10T17:52:39.490Z,15.97
2018-02-10T17:55:06.945Z,12.87
2018-02-10T17:57:34.394Z,17.53
2018-02-10T18:00:01.865Z,16.67
2018-02-10T18:02:29.316Z,15.90
2018-02-10T18:04:57.174Z,18.07
2018-02-10T18:07:24.641Z,15.77
2018-02-10T18:09:52.100Z,15.97
2018-02-10T18:12:19.575Z,15.87
2018-02-10T18:14:47.031Z,15.00
2018-02-10T18:17:14.658Z,16.70
2018-02-10T18:19:42.137Z,15.93
2018-02-10T18:22:09.590Z,15.73
2018-02-10T18:24:37.076Z,15.00
2018-02-10T18:27:04.545Z,15.30
2018-02-10T18:29:32.270Z,14.73
2018-02-10T18:31:59.721Z,14.67
2018-02-10T18:34:27.205Z,14.53
2018-02-10T18:36:54.693Z,15.37
2018-02-10T18:39:22.161Z,14.70
2018-02-10T18:41:49.850Z,13.70
2018-02-10T18:44:17.302Z,14.80
2018-02-10T18:46:44.759Z,14.43
2018-02-10T18:49:12.289Z,12.90
2018-02-10T18:51:39.741Z,14.27
2018-02-10T18:54:07.457Z,14.80
2018-02-10T18:56:34.928Z,15.53
2018-02-10T18:59:02.382Z,16.03
2018-02-10T19:01:29.869Z,15.47
2018-02-10T19:03:57.312Z,14.33
2018-02-10T19:06:24.789Z,15.57
2018-02-10T19:08:52.254Z,14.57
2018-02-10T19:11:19.748Z,13.87
2018-02-10T19:13:47.218Z,13.00
2018-02-10T19:16:14.669Z,15.23
2018-02-10T19:18:42.354Z,15.37
2018-02-10T19:21:09.789Z,15.00
2018-02-10T19:23:37.237Z,14.40
2018-02-10T19:26:04.711Z,15.07
2018-02-10T19:28:32.194Z,15.17
2018-02-10T19:30:59.790Z,13.57
2018-02-10T19:33:27.257Z,15.40
2018-02-10T19:35:54.754Z,14.60
2018-02-10T19:38:22.225Z,16.73
2018-02-10T19:40:49.736Z,15.60
2018-02-10T19:43:17.377Z,19.03
2018-02-10T19:45:44.831Z,15.90
2018-02-10T19:48:12.277Z,16.60
2018-02-10T19:50:39.750Z,15.67
2018-02-10T19:53:07.213Z,14.70
2018-02-10T19:55:34.749Z,14.60
2018-02-10T19:58:02.217Z,15.10
2018-02-10T20:00:29.681Z,14.20
2018-02-10T20:02:57.129Z,12.53
2018-02-10T20:05:24.602Z,13.60
2018-02-10T20:07:52.078Z,13.63
2018-02-10T20:10:19.541Z,11.53
2018-02-10T20:12:47.032Z,12.23
2018-02-10T20:15:14.502Z,12.00
2018-02-10T20:17:41.957Z,11.37
2018-02-10T20:20:09.429Z,11.40
2018-02-10T20:22:36.883Z,12.00
2018-02-10T20:25:04.541Z,12.27
2018-02-10T20:27:31.989Z,12.10
2018-02-10T20:29:59.437Z,12.50
2018-02-10T20:32:26.905Z,11.20
2018-02-10T20:34:54.348Z,11.80
2018-02-10T20:37:22.324Z,11.40
2018-02-10T20:39:49.772Z,11.73
2018-02-10T20:42:17.217Z,11.70
2018-02-10T20:44:44.684Z,13.00
2018-02-10T20:47:12.166Z,13.17
2018-02-10T20:49:39.928Z,12.60
2018-02-10T20:52:07.373Z,10.47
2018-02-10T20:54:34.833Z,11.57
2018-02-10T20:57:02.549Z,11.07
2018-02-10T20:59:30.057Z,9.00
2018-02-10T21:01:57.528Z,11.10
2018-02-10T21:04:24.997Z,9.83
2018-02-10T21:06:52.445Z,9.43
2018-02-10T21:09:19.913Z,9.37
2018-02-10T21:11:47.408Z,8.23
2018-02-10T21:14:15.209Z,8.40
2018-02-10T21:16:42.645Z,8.00
2018-02-10T21:19:10.089Z,8.50
2018-02-10T21:21:37.581Z,9.30
2018-02-10T21:24:05.021Z,9.00
2018-02-10T21:26:32.803Z,8.30
2018-02-10T21:29:00.270Z,6.57
2018-02-10T21:31:27.721Z,6.23
2018-02-10T21:33:55.177Z,6.80
2018-02-10T21:36:22.611Z,7.23
2018-02-10T21:38:50.169Z,7.17
2018-02-10T21:41:17.614Z,6.93
2018-02-10T21:43:45.070Z,7.50
2018-02-10T21:46:12.528Z,7.47
2018-02-10T21:48:39.976Z,7.03
2018-02-10T21:51:07.769Z,7.63
2018-02-10T21:53:35.251Z,6.17
2018-02-10T21:56:02.733Z,5.87
2018-02-10T21:58:30.205Z,5.33
2018-02-10T22:00:57.652Z,5.20
2018-02-10T22:03:25.307Z,5.77
2018-02-10T22:05:52.821Z,6.27
2018-02-10T22:08:20.261Z,7.63
2018-02-10T22:10:47.717Z,5.93
2018-02-10T22:13:15.169Z,5.87
2018-02-10T22:15:42.641Z,5.33
2018-02-10T22:18:10.078Z,5.53
2018-02-10T22:20:37.517Z,6.80
2018-02-10T22:23:04.997Z,5.47
2018-02-10T22:25:32.447Z,5.63
2018-02-10T22:28:00.133Z,8.00
2018-02-10T22:30:27.568Z,5.67
2018-02-10T22:32:55.001Z,5.73
2018-02-10T22:35:22.456Z,5.53
2018-02-10T22:37:49.893Z,7.00
2018-02-10T22:40:17.529Z,6.30
2018-02-10T22:42:44.970Z,5.60
2018-02-10T22:45:12.460Z,7.30
2018-02-10T22:47:39.942Z,5.60
2018-02-10T22:50:07.381Z,5.90
2018-02-10T22:52:35.004Z,6.10
2018-02-10T22:55:02.461Z,8.10
2018-02-10T22:57:29.904Z,8.57
2018-02-10T22:59:57.377Z,7.40
2018-02-10T23:02:24.848Z,7.50
2018-02-10T23:04:52.491Z,7.97
2018-02-10T23:07:19.939Z,8.20
2018-02-10T23:09:47.405Z,8.60
2018-02-10T23:12:14.865Z,8.90
2018-02-10T23:14:42.312Z,8.53
2018-02-10T23:17:09.777Z,8.50
2018-02-10T23:19:37.213Z,7.83
2018-02-10T23:22:04.658Z,8.90
2018-02-10T23:24:32.121Z,7.13
2018-02-10T23:26:59.557Z,8.30
2018-02-10T23:29:27.270Z,8.00
2018-02-10T23:31:54.709Z,6.60
2018-02-10T23:34:22.194Z,5.77
2018-02-10T23:36:49.666Z,6.40
2018-02-10T23:39:17.120Z,7.17
2018-02-10T23:41:44.729Z,5.93
2018-02-10T23:44:12.168Z,7.67
2018-02-10T23:46:39.609Z,7.30
2018-02-10T23:49:07.096Z,6.77
2018-02-10T23:51:34.533Z,6.23
2018-02-10T23:54:02.129Z,6.63
2018-02-10T23:56:29.566Z,5.83
2018-02-10T23:58:57.004Z,6.00
